Time;durP1;ratioP1;P1;durP2;ratioP2;P2;SDS_P1;SDS_P2;PMS_P1;PMS_P2;Temp;Humidity;BMP_temperature;BMP_pressure;BME280_temperature;BME280_humidity;BME280_pressure;Samples;Min_cycle;Max_cycle;Signal;HPM_P1;HPM_P2
2022/02/18 00:00:44;;;;;;;;;;;;;;;;;;7395597;19;2181;-49
2022/02/18 00:03:13;;;;;;;;;;;;;;;;;;7396162;19;2068;-46
2022/02/18 00:05:41;;;;;;;;;;;;;;;;;;7394606;19;2266;-45
2022/02/18 00:08:08;;;;;;;;;;;;;;;;;;7395917;19;2183;-48
2022/02/18 00:10:37;;;;;;;;;;;;;;;;;;7396625;19;2153;-46
2022/02/18 00:13:05;;;;;;;;;;;;;;;;;;7395707;19;2289;-45
2022/02/18 00:15:32;;;;;;;;;;;;;;;;;;7393919;19;2214;-47
2022/02/18 00:18:01;;;;;;;;;;;;;;;;;;7395471;19;2200;-45
2022/02/18 00:20:29;;;;;;;;;;;;;;;;;;7394645;19;2105;-46
2022/02/18 00:22:57;;;;;;;;;;;;;;;;;;7395542;19;1849;-46
2022/02/18 00:25:24;;;;;;;;;;;;;;;;;;7395186;19;2583;-48
2022/02/18 00:28:00;;;;;;;;;;;;;;;;;;7395363;19;2101;-50
2022/02/18 00:30:27;;;;;;;;;;;;;;;;;;7395622;19;2245;-46
2022/02/18 00:32:55;;;;;;;;;;;;;;;;;;7392778;19;1858;-50
2022/02/18 00:35:22;;;;;;;;;;;;;;;;;;7392983;19;2405;-47
2022/02/18 00:37:52;;;;;;;;;;;;;;;;;;7394631;19;1831;-49
2022/02/18 00:40:19;;;;;;;;;;;;;;;;;;7394883;19;1994;-46
2022/02/18 00:42:47;;;;;;;;;;;;;;;;;;7394199;19;2266;-46
2022/02/18 00:45:15;;;;;;;;;;;;;;;;;;7397146;19;2334;-46
2022/02/18 00:47:43;;;;;;;;;;;;;;;;;;7394486;19;2176;-47
2022/02/18 00:50:10;;;;;;;;;;;;;;;;;;7394430;19;1949;-51
2022/02/18 00:52:38;;;;;;;;;;;;;;;;;;7392930;19;1861;-47
2022/02/18 00:55:07;;;;;;;;;;;;;;;;;;7393361;19;2276;-47
2022/02/18 00:57:34;;;;;;;;;;;;;;;;;;7393245;19;2178;-47
2022/02/18 01:00:03;;;;;;;;;;;;;;;;;;7394799;19;2255;-51
2022/02/18 01:02:30;;;;;;;;;;;;;;;;;;7394251;19;2287;-46
2022/02/18 01:04:57;;;;;;;;;;;;;;;;;;7392107;19;2175;-47
2022/02/18 01:07:25;;;;;;;;;;;;;;;;;;7393236;19;1948;-47
2022/02/18 01:09:55;;;;;;;;;;;;;;;;;;7396478;19;1995;-46
2022/02/18 01:12:22;;;;;;;;;;;;;;;;;;7392306;19;2290;-47
2022/02/18 01:14:50;;;;;;;;;;;;;;;;;;7393998;19;1545;-46
2022/02/18 01:17:17;;;;;;;;;;;;;;;;;;7393924;19;2214;-47
2022/02/18 01:19:44;;;;;;;;;;;;;;;;;;7393416;19;2262;-46
2022/02/18 01:22:11;;;;;;;;;;;;;;;;;;7392412;19;2542;-46
2022/02/18 01:24:39;;;;;;;;;;;;;;;;;;7393631;19;2000;-46
2022/02/18 01:27:07;;;;;;;;;;;;;;;;;;7393008;19;2106;-48
2022/02/18 01:29:39;;;;;;;;;;;;;;;;;;7393068;19;2267;-46
2022/02/18 01:32:10;;;;;;;;;;;;;;;;;;7390166;19;2154;-47
2022/02/18 01:34:39;;;;;;;;;;;;;;;;;;7391248;19;2358;-45
2022/02/18 01:37:07;;;;;;;;;;;;;;;;;;7393182;19;2176;-49
2022/02/18 01:39:34;;;;;;;;;;;;;;;;;;7392922;19;2300;-47
2022/02/18 01:42:02;;;;;;;;;;;;;;;;;;7392407;19;2267;-47
2022/02/18 01:44:40;;;;;;;;;;;;;;;;;;7394644;19;2018;-47
2022/02/18 01:47:21;;;;;;;;;;;;;;;;;;7392631;19;2170;-51
2022/02/18 01:49:50;;;;;;;;;;;;;;;;;;7390920;19;1960;-46
2022/02/18 01:52:18;;;;;;;;;;;;;;;;;;7390923;19;1842;-49
2022/02/18 01:54:48;;;;;;;;;;;;;;;;;;7392110;19;2057;-48
2022/02/18 01:57:15;;;;;;;;;;;;;;;;;;7390108;19;2595;-54
2022/02/18 01:59:43;;;;;;;;;;;;;;;;;;7391088;19;1932;-47
2022/02/18 02:02:10;;;;;;;;;;;;;;;;;;7393621;19;2325;-47
2022/02/18 02:04:37;;;;;;;;;;;;;;;;;;7389944;19;2559;-49
2022/02/18 02:07:09;;;;;;;;;;;;;;;;;;7392281;19;2303;-46
2022/02/18 02:09:36;;;;;;;;;;;;;;;;;;7391996;19;2353;-46
2022/02/18 02:12:04;;;;;;;;;;;;;;;;;;7388915;19;2305;-49
2022/02/18 02:14:38;;;;;;;;;;;;;;;;;;7390666;19;2090;-46
2022/02/18 02:17:05;;;;;;;;;;;;;;;;;;7390728;19;2292;-51
2022/02/18 02:19:32;;;;;;;;;;;;;;;;;;7391536;19;2375;-46
2022/02/18 02:22:02;;;;;;;;;;;;;;;;;;7388134;19;2303;-47
2022/02/18 02:24:30;;;;;;;;;;;;;;;;;;7389643;19;2193;-48
2022/02/18 02:26:58;;;;;;;;;;;;;;;;;;7389822;19;2258;-47
2022/02/18 02:29:25;;;;;;;;;;;;;;;;;;7388184;19;1939;-63
2022/02/18 02:31:56;;;;;;;;;;;;;;;;;;7389134;19;2326;-48
2022/02/18 02:34:26;;;;;;;;;;;;;;;;;;7389528;19;1832;-55
2022/02/18 02:36:54;;;;;;;;;;;;;;;;;;7390707;19;1495;-47
2022/02/18 02:39:23;;;;;;;;;;;;;;;;;;7389673;19;2317;-48
2022/02/18 02:41:50;;;;;;;;;;;;;;;;;;7388896;19;1983;-47
2022/02/18 02:44:17;;;;;;;;;;;;;;;;;;7392508;19;2234;-46
2022/02/18 02:46:48;;;;;;;;;;;;;;;;;;7390338;19;2211;-47
2022/02/18 02:49:26;;;;;;;;;;;;;;;;;;7388877;19;2291;-49
2022/02/18 02:51:53;;;;;;;;;;;;;;;;;;7389100;19;2290;-46
2022/02/18 02:54:21;;;;;;;;;;;;;;;;;;7390790;19;2268;-49
2022/02/18 02:57:00;;;;;;;;;;;;;;;;;;7388980;19;2080;-46
2022/02/18 02:59:40;;;;;;;;;;;;;;;;;;7389034;19;2240;-48
2022/02/18 03:02:08;;;;;;;;;;;;;;;;;;7389088;19;1305;-46
2022/02/18 03:04:39;;;;;;;;;;;;;;;;;;7389222;19;2118;-51
2022/02/18 03:07:07;;;;;;;;;;;;;;;;;;7388608;19;2343;-48
2022/02/18 03:09:53;;;;;;;;;;;;;;;;;;7387946;19;2363;-47
2022/02/18 03:12:21;;;;;;;;;;;;;;;;;;7387852;19;2067;-49
2022/02/18 03:14:51;;;;;;;;;;;;;;;;;;7388577;19;2375;-51
2022/02/18 03:17:26;;;;;;;;;;;;;;;;;;7387094;19;2289;-57
2022/02/18 03:20:14;;;;;;;;;;;;;;;;;;7389439;19;1752;-50
2022/02/18 03:22:43;;;;;;;;;;;;;;;;;;7388924;19;2292;-46
2022/02/18 03:25:10;;;;;;;;;;;;;;;;;;7390155;19;2250;-48
2022/02/18 03:27:40;;;;;;;;;;;;;;;;;;7390163;19;2393;-45
2022/02/18 03:30:11;;;;;;;;;;;;;;;;;;7387692;19;2402;-45
2022/02/18 03:32:41;;;;;;;;;;;;;;;;;;7389547;19;2127;-47
2022/02/18 03:35:08;;;;;;;;;;;;;;;;;;7389797;19;1343;-49
2022/02/18 03:37:39;;;;;;;;;;;;;;;;;;7389498;19;2134;-50
2022/02/18 03:40:29;;;;;;;;;;;;;;;;;;7387870;19;2251;-53
2022/02/18 03:42:57;;;;;;;;;;;;;;;;;;7395973;19;1936;-45
2022/02/18 03:45:30;;;;;;;;;;;;;;;;;;7398746;19;2527;-46
2022/02/18 03:47:59;;;;;;;;;;;;;;;;;;7394562;19;2255;-48
2022/02/18 03:50:27;;;;;;;;;;;;;;;;;;7394269;19;2376;-47
2022/02/18 03:52:57;;;;;;;;;;;;;;;;;;7393252;19;1850;-51
2022/02/18 03:55:24;;;;;;;;;;;;;;;;;;7395917;19;2281;-49
2022/02/18 03:57:56;;;;;;;;;;;;;;;;;;7394742;19;2049;-47
2022/02/18 04:00:31;;;;;;;;;;;;;;;;;;7393398;19;2249;-52
2022/02/18 04:03:00;;;;;;;;;;;;;;;;;;7394243;19;2234;-49
2022/02/18 04:05:46;;;;;;;;;;;;;;;;;;7395911;19;2043;-46
2022/02/18 04:08:30;;;;;;;;;;;;;;;;;;7394028;19;1922;-49
2022/02/18 04:10:57;;;;;;;;;;;;;;;;;;7393906;19;2219;-49
2022/02/18 04:13:25;;;;;;;;;;;;;;;;;;7393537;19;2539;-53
2022/02/18 04:15:54;;;;;;;;;;;;;;;;;;7393211;19;2347;-48
2022/02/18 04:18:23;;;;;;;;;;;;;;;;;;7394071;19;2319;-51
2022/02/18 04:20:54;;;;;;;;;;;;;;;;;;7393171;19;2656;-55
2022/02/18 04:23:39;;;;;;;;;;;;;;;;;;7394513;19;1966;-53
2022/02/18 04:26:08;;;;;;;;;;;;;;;;;;7394561;19;2191;-47
2022/02/18 04:28:35;;;;;;;;;;;;;;;;;;7395143;19;2176;-62
2022/02/18 04:31:02;;;;;;;;;;;;;;;;;;7395154;19;2313;-50
2022/02/18 04:33:29;;;;;;;;;;;;;;;;;;7393134;19;2339;-49
2022/02/18 04:35:57;;;;;;;;;;;;;;;;;;7394735;19;2286;-46
2022/02/18 04:38:24;;;;;;;;;;;;;;;;;;7394868;19;2311;-52
2022/02/18 04:40:51;;;;;;;;;;;;;;;;;;7394725;19;1912;-51
2022/02/18 04:43:19;;;;;;;;;;;;;;;;;;7395158;19;2281;-48
2022/02/18 04:45:46;;;;;;;;;;;;;;;;;;7398671;19;2098;-54
2022/02/18 04:48:15;;;;;;;;;;;;;;;;;;7392455;19;1955;-50
2022/02/18 04:50:43;;;;;;;;;;;;;;;;;;7394967;19;1907;-49
2022/02/18 04:53:30;;;;;;;;;;;;;;;;;;7392247;19;1861;-53
2022/02/18 04:55:58;;;;;;;;;;;;;;;;;;7394544;19;2136;-53
2022/02/18 04:58:25;;;;;;;;;;;;;;;;;;7393689;19;2033;-52
2022/02/18 05:00:53;;;;;;;;;;;;;;;;;;7393570;19;2294;-47
2022/02/18 05:03:20;;;;;;;;;;;;;;;;;;7394063;19;2754;-49
2022/02/18 05:05:48;;;;;;;;;;;;;;;;;;7393713;19;2337;-53
2022/02/18 05:08:15;;;;;;;;;;;;;;;;;;7394335;19;2195;-50
2022/02/18 05:10:43;;;;;;;;;;;;;;;;;;7394107;19;2539;-53
2022/02/18 05:13:10;;;;;;;;;;;;;;;;;;7391864;19;2367;-49
2022/02/18 05:15:38;;;;;;;;;;;;;;;;;;7393918;19;2160;-48
2022/02/18 05:18:05;;;;;;;;;;;;;;;;;;7393254;19;1961;-50
2022/02/18 05:20:33;;;;;;;;;;;;;;;;;;7393834;19;1905;-53
2022/02/18 05:23:03;;;;;;;;;;;;;;;;;;7393432;19;1933;-47
2022/02/18 05:25:31;;;;;;;;;;;;;;;;;;7392766;19;2370;-51
2022/02/18 05:27:59;;;;;;;;;;;;;;;;;;7395405;19;2220;-51
2022/02/18 05:30:26;;;;;;;;;;;;;;;;;;7393101;19;1964;-52
2022/02/18 05:32:53;;;;;;;;;;;;;;;;;;7390302;19;2564;-49
2022/02/18 05:35:21;;;;;;;;;;;;;;;;;;7392779;19;2200;-48
2022/02/18 05:37:48;;;;;;;;;;;;;;;;;;7392962;19;2261;-47
2022/02/18 05:40:15;;;;;;;;;;;;;;;;;;7392496;19;2206;-51
2022/02/18 05:42:42;;;;;;;;;;;;;;;;;;7392766;19;2012;-50
2022/02/18 05:45:10;;;;;;;;;;;;;;;;;;7395763;19;1793;-53
2022/02/18 05:47:39;;;;;;;;;;;;;;;;;;7392160;19;2488;-53
2022/02/18 05:50:12;;;;;;;;;;;;;;;;;;7392435;19;1626;-54
2022/02/18 05:52:41;;;;;;;;;;;;;;;;;;7390221;19;2455;-48
2022/02/18 05:55:08;;;;;;;;;;;;;;;;;;7392409;19;1923;-51
2022/02/18 05:57:35;;;;;;;;;;;;;;;;;;7391639;19;1379;-62
2022/02/18 06:00:07;;;;;;;;;;;;;;;;;;7392324;19;1984;-49
2022/02/18 06:02:39;;;;;;;;;;;;;;;;;;7391992;19;1985;-50
2022/02/18 06:05:07;;;;;;;;;;;;;;;;;;7390205;19;2532;-54
2022/02/18 06:07:34;;;;;;;;;;;;;;;;;;7391651;19;2258;-51
2022/02/18 06:10:02;;;;;;;;;;;;;;;;;;7392104;19;2100;-66
2022/02/18 06:12:29;;;;;;;;;;;;;;;;;;7391140;19;1861;-48
2022/02/18 06:14:56;;;;;;;;;;;;;;;;;;7391563;19;2434;-56
2022/02/18 06:17:23;;;;;;;;;;;;;;;;;;7391083;19;2103;-51
2022/02/18 06:19:56;;;;;;;;;;;;;;;;;;7390883;19;2227;-57
2022/02/18 06:22:24;;;;;;;;;;;;;;;;;;7391639;19;2278;-52
2022/02/18 06:24:53;;;;;;;;;;;;;;;;;;7391281;19;1695;-47
2022/02/18 06:27:21;;;;;;;;;;;;;;;;;;7391081;19;2203;-51
2022/02/18 06:29:49;;;;;;;;;;;;;;;;;;7391391;19;2486;-49
2022/02/18 06:32:16;;;;;;;;;;;;;;;;;;7390937;19;2197;-53
2022/02/18 06:34:43;;;;;;;;;;;;;;;;;;7390924;19;2293;-64
2022/02/18 06:37:11;;;;;;;;;;;;;;;;;;7391925;19;2362;-52
2022/02/18 06:39:38;;;;;;;;;;;;;;;;;;7389319;19;2272;-51
2022/02/18 06:42:09;;;;;;;;;;;;;;;;;;7391369;19;1487;-65
2022/02/18 06:44:37;;;;;;;;;;;;;;;;;;7393232;19;2168;-51
2022/02/18 06:47:04;;;;;;;;;;;;;;;;;;7390893;19;2292;-58
2022/02/18 06:49:31;;;;;;;;;;;;;;;;;;7390094;19;1767;-66
2022/02/18 06:51:58;;;;;;;;;;;;;;;;;;7387949;19;2163;-48
2022/02/18 06:54:26;;;;;;;;;;;;;;;;;;7384583;19;2363;-48
2022/02/18 06:56:55;;;;;;;;;;;;;;;;;;7385922;19;2297;-49
2022/02/18 06:59:23;;;;;;;;;;;;;;;;;;7385392;19;2267;-48
2022/02/18 07:01:53;;;;;;;;;;;;;;;;;;7386059;19;2340;-47
2022/02/18 07:04:24;;;;;;;;;;;;;;;;;;7385772;19;1691;-46
2022/02/18 07:06:52;;;;;;;;;;;;;;;;;;7385538;19;2214;-47
2022/02/18 07:09:19;;;;;;;;;;;;;;;;;;7389417;19;2177;-62
2022/02/18 07:11:47;;;;;;;;;;;;;;;;;;7389833;19;1824;-47
2022/02/18 07:14:14;;;;;;;;;;;;;;;;;;7388694;19;2194;-54
2022/02/18 07:16:42;;;;;;;;;;;;;;;;;;7396292;19;2193;-46
2022/02/18 07:19:13;;;;;;;;;;;;;;;;;;7397833;19;1906;-47
2022/02/18 07:21:41;;;;;;;;;;;;;;;;;;7395902;19;1344;-49
2022/02/18 07:24:08;;;;;;;;;;;;;;;;;;7397605;19;1776;-52
2022/02/18 07:26:36;;;;;;;;;;;;;;;;;;7396970;19;2311;-47
2022/02/18 07:29:03;;;;;;;;;;;;;;;;;;7396814;19;1761;-48
2022/02/18 07:31:30;;;;;;;;;;;;;;;;;;7397505;19;2496;-64
2022/02/18 07:33:57;;;;;;;;;;;;;;;;;;7393860;19;2426;-48
2022/02/18 07:36:24;;;;;;;;;;;;;;;;;;7397172;19;2284;-48
2022/02/18 07:42:04;;;;;;;;;;;;;;;;;;7392041;19;1745;-47
2022/02/18 07:44:31;;;;;;;;;;;;;;;;;;7397996;19;1954;-48
2022/02/18 07:46:58;;;;;;;;;;;;;;;;;;7396453;19;1805;-52
2022/02/18 07:49:47;;;;;;;;;;;;;;;;;;7396756;19;2233;-50
2022/02/18 07:52:15;;;;;;;;;;;;;;;;;;7396197;19;2213;-48
2022/02/18 07:54:43;;;;;;;;;;;;;;;;;;7393936;19;2405;-46
2022/02/18 07:57:10;;;;;;;;;;;;;;;;;;7396591;19;2504;-50
2022/02/18 07:59:38;;;;;;;;;;;;;;;;;;7396011;19;1584;-50
2022/02/18 08:02:05;;;;;;;;;;;;;;;;;;7396488;19;2074;-48
2022/02/18 08:04:33;;;;;;;;;;;;;;;;;;7394174;19;2274;-46
2022/02/18 08:07:03;;;;;;;;;;;;;;;;;;7395913;19;2262;-46
2022/02/18 08:09:33;;;;;;;;;;;;;;;;;;7395904;19;2390;-47
2022/02/18 08:12:00;;;;;;;;;;;;;;;;;;7395253;19;2185;-46
2022/02/18 08:14:27;;;;;;;;;;;;;;;;;;7393817;19;2192;-48
2022/02/18 08:16:54;;;;;;;;;;;;;;;;;;7396136;19;1998;-50
2022/02/18 08:19:23;;;;;;;;;;;;;;;;;;7395648;19;2285;-45
2022/02/18 08:21:51;;;;;;;;;;;;;;;;;;7392611;19;2252;-46
2022/02/18 08:24:19;;;;;;;;;;;;;;;;;;7395109;19;2315;-46
2022/02/18 08:26:49;;;;;;;;;;;;;;;;;;7393687;19;1855;-51
2022/02/18 08:29:17;;;;;;;;;;;;;;;;;;7395042;19;2312;-49
2022/02/18 08:31:45;;;;;;;;;;;;;;;;;;7395304;19;2179;-67
2022/02/18 08:34:12;;;;;;;;;;;;;;;;;;7391795;19;2133;-46
2022/02/18 08:36:42;;;;;;;;;;;;;;;;;;7395315;19;2261;-48
2022/02/18 08:39:09;;;;;;;;;;;;;;;;;;7394818;19;2112;-48
2022/02/18 08:41:37;;;;;;;;;;;;;;;;;;7395198;19;2246;-49
2022/02/18 08:44:05;;;;;;;;;;;;;;;;;;7394149;19;2324;-61
2022/02/18 08:46:32;;;;;;;;;;;;;;;;;;7394415;19;2315;-47
2022/02/18 08:48:59;;;;;;;;;;;;;;;;;;7395015;19;2276;-48
2022/02/18 08:51:26;;;;;;;;;;;;;;;;;;7394143;19;1900;-48
2022/02/18 08:53:53;;;;;;;;;;;;;;;;;;7393277;19;2011;-47
2022/02/18 08:56:21;;;;;;;;;;;;;;;;;;7392495;19;2035;-47
2022/02/18 08:59:03;;;;;;;;;;;;;;;;;;7396396;19;2172;-54
2022/02/18 09:01:47;;;;;;;;;;;;;;;;;;7395620;19;1968;-51
2022/02/18 09:04:14;;;;;;;;;;;;;;;;;;7394853;19;2025;-51
2022/02/18 09:06:41;;;;;;;;;;;;;;;;;;7392624;19;2186;-46
2022/02/18 09:09:09;;;;;;;;;;;;;;;;;;7393001;19;2043;-48
2022/02/18 09:11:36;;;;;;;;;;;;;;;;;;7393207;19;2459;-46
2022/02/18 09:14:06;;;;;;;;;;;;;;;;;;7392296;19;2294;-46
2022/02/18 09:16:36;;;;;;;;;;;;;;;;;;7391373;19;1482;-46
2022/02/18 09:19:03;;;;;;;;;;;;;;;;;;7393099;19;2171;-46
2022/02/18 09:21:31;;;;;;;;;;;;;;;;;;7392392;19;2164;-54
2022/02/18 09:23:59;;;;;;;;;;;;;;;;;;7393471;19;1969;-46
2022/02/18 09:26:26;;;;;;;;;;;;;;;;;;7393057;19;2189;-46
2022/02/18 09:28:58;;;;;;;;;;;;;;;;;;7388968;19;1974;-58
2022/02/18 09:31:25;;;;;;;;;;;;;;;;;;7395779;19;2289;-46
2022/02/18 09:33:53;;;;;;;;;;;;;;;;;;7391953;19;2381;-61
2022/02/18 09:36:20;;;;;;;;;;;;;;;;;;7393759;19;2423;-47
2022/02/18 09:38:47;;;;;;;;;;;;;;;;;;7387153;19;1771;-48
2022/02/18 09:41:14;;;;;;;;;;;;;;;;;;7387926;19;2210;-48
2022/02/18 09:43:41;;;;;;;;;;;;;;;;;;7389069;19;1977;-61
2022/02/18 09:46:09;;;;;;;;;;;;;;;;;;7392058;19;1334;-47
2022/02/18 09:48:37;;;;;;;;;;;;;;;;;;7392683;19;1887;-47
2022/02/18 09:51:04;;;;;;;;;;;;;;;;;;7392638;19;2349;-46
2022/02/18 09:53:34;;;;;;;;;;;;;;;;;;7391787;19;2179;-47
2022/02/18 09:56:02;;;;;;;;;;;;;;;;;;7392536;19;1776;-50
2022/02/18 09:58:30;;;;;;;;;;;;;;;;;;7391464;19;2050;-64
2022/02/18 10:00:57;;;;;;;;;;;;;;;;;;7391784;19;2255;-47
2022/02/18 10:03:25;;;;;;;;;;;;;;;;;;7392243;19;2373;-47
2022/02/18 10:05:52;;;;;;;;;;;;;;;;;;7393590;19;2266;-49
2022/02/18 10:08:22;;;;;;;;;;;;;;;;;;7391718;19;2239;-48
2022/02/18 10:11:05;;;;;;;;;;;;;;;;;;7391871;19;2065;-52
2022/02/18 10:13:34;;;;;;;;;;;;;;;;;;7391792;19;2309;-47
2022/02/18 10:16:10;;;;;;;;;;;;;;;;;;7391264;19;2153;-47
2022/02/18 10:18:49;;;;;;;;;;;;;;;;;;7391010;19;2463;-50
2022/02/18 10:21:17;;;;;;;;;;;;;;;;;;7388452;19;2205;-50
2022/02/18 10:23:45;;;;;;;;;;;;;;;;;;7391440;19;1736;-48
2022/02/18 10:26:12;;;;;;;;;;;;;;;;;;7391607;19;1651;-47
2022/02/18 10:28:40;;;;;;;;;;;;;;;;;;7391004;19;2310;-49
2022/02/18 10:31:07;;;;;;;;;;;;;;;;;;7390964;19;2398;-50
2022/02/18 10:33:37;;;;;;;;;;;;;;;;;;7391202;19;2182;-51
2022/02/18 10:36:06;;;;;;;;;;;;;;;;;;7391733;19;2372;-64
2022/02/18 10:38:49;;;;;;;;;;;;;;;;;;7391033;19;2107;-49
2022/02/18 10:41:17;;;;;;;;;;;;;;;;;;7391353;19;2282;-48
2022/02/18 10:43:45;;;;;;;;;;;;;;;;;;7390697;19;1687;-47
2022/02/18 10:46:12;;;;;;;;;;;;;;;;;;7390711;19;2406;-54
2022/02/18 10:48:50;;;;;;;;;;;;;;;;;;7390446;19;1920;-47
2022/02/18 10:51:19;;;;;;;;;;;;;;;;;;7395776;19;1599;-47
2022/02/18 10:53:47;;;;;;;;;;;;;;;;;;7396233;19;2071;-49
2022/02/18 10:56:15;;;;;;;;;;;;;;;;;;7398169;19;2387;-49
2022/02/18 10:58:52;;;;;;;;;;;;;;;;;;7398079;19;2279;-48
2022/02/18 11:01:20;;;;;;;;;;;;;;;;;;7398077;19;2018;-49
2022/02/18 11:03:51;;;;;;;;;;;;;;;;;;7397427;19;2181;-47
2022/02/18 11:06:22;;;;;;;;;;;;;;;;;;7398093;19;2226;-63
2022/02/18 11:08:49;;;;;;;;;;;;;;;;;;7397883;19;1929;-47
2022/02/18 11:11:17;;;;;;;;;;;;;;;;;;7397671;19;2074;-51
2022/02/18 11:13:44;;;;;;;;;;;;;;;;;;7396564;19;2232;-48
2022/02/18 11:16:16;;;;;;;;;;;;;;;;;;7397745;19;2295;-48
2022/02/18 11:18:43;;;;;;;;;;;;;;;;;;7397832;19;1749;-63
2022/02/18 11:21:11;;;;;;;;;;;;;;;;;;7395859;19;2294;-49
2022/02/18 11:23:42;;;;;;;;;;;;;;;;;;7396849;19;2274;-47
2022/02/18 11:26:11;;;;;;;;;;;;;;;;;;7397449;19;2150;-47
2022/02/18 11:28:39;;;;;;;;;;;;;;;;;;7397682;19;1901;-50
2022/02/18 11:31:08;;;;;;;;;;;;;;;;;;7397162;19;2023;-47
2022/02/18 11:33:38;;;;;;;;;;;;;;;;;;7397017;19;1977;-48
2022/02/18 11:36:28;;;;;;;;;;;;;;;;;;7397187;19;1661;-47
2022/02/18 11:39:14;;;;;;;;;;;;;;;;;;7396650;19;2322;-47
2022/02/18 11:41:44;;;;;;;;;;;;;;;;;;7397138;19;2054;-47
2022/02/18 11:44:12;;;;;;;;;;;;;;;;;;7397468;19;2290;-48
2022/02/18 11:46:39;;;;;;;;;;;;;;;;;;7396344;19;2250;-48
2022/02/18 11:49:08;;;;;;;;;;;;;;;;;;7397511;19;2177;-47
2022/02/18 11:51:43;;;;;;;;;;;;;;;;;;7396770;19;1976;-55
2022/02/18 11:54:29;;;;;;;;;;;;;;;;;;7394922;19;2391;-47
2022/02/18 11:57:17;;;;;;;;;;;;;;;;;;7396571;19;1991;-46
2022/02/18 11:59:44;;;;;;;;;;;;;;;;;;7395937;19;2279;-50
2022/02/18 12:02:12;;;;;;;;;;;;;;;;;;7393265;19;2290;-47
2022/02/18 12:04:41;;;;;;;;;;;;;;;;;;7395740;19;2023;-47
2022/02/18 12:07:20;;;;;;;;;;;;;;;;;;7396198;19;2224;-48
2022/02/18 12:09:50;;;;;;;;;;;;;;;;;;7395998;19;2266;-47
2022/02/18 12:12:27;;;;;;;;;;;;;;;;;;7395724;19;2098;-47
2022/02/18 12:14:56;;;;;;;;;;;;;;;;;;7394698;19;2251;-46
2022/02/18 12:17:25;;;;;;;;;;;;;;;;;;7395721;19;1970;-49
2022/02/18 12:19:53;;;;;;;;;;;;;;;;;;7395736;19;2112;-46
2022/02/18 12:22:33;;;;;;;;;;;;;;;;;;7395895;19;2196;-47
2022/02/18 12:25:20;;;;;;;;;;;;;;;;;;7395105;19;2181;-47
2022/02/18 12:27:48;;;;;;;;;;;;;;;;;;7395395;19;1983;-47
2022/02/18 12:30:21;;;;;;;;;;;;;;;;;;7395362;19;2185;-48
2022/02/18 12:32:49;;;;;;;;;;;;;;;;;;7395636;19;1548;-47
2022/02/18 12:35:27;;;;;;;;;;;;;;;;;;7393754;19;2056;-47
2022/02/18 12:37:59;;;;;;;;;;;;;;;;;;7392502;19;2270;-50
2022/02/18 12:40:28;;;;;;;;;;;;;;;;;;7394782;19;1620;-47
2022/02/18 12:42:57;;;;;;;;;;;;;;;;;;7392686;19;2285;-49
2022/02/18 12:45:35;;;;;;;;;;;;;;;;;;7397811;19;2270;-46
2022/02/18 12:48:02;;;;;;;;;;;;;;;;;;7394318;19;2107;-46
2022/02/18 12:50:36;;;;;;;;;;;;;;;;;;7394446;19;2098;-58
2022/02/18 12:53:04;;;;;;;;;;;;;;;;;;7393940;19;2184;-47
2022/02/18 12:55:35;;;;;;;;;;;;;;;;;;7392484;19;1891;-46
2022/02/18 12:58:03;;;;;;;;;;;;;;;;;;7394227;19;2283;-47
2022/02/18 13:00:31;;;;;;;;;;;;;;;;;;7394707;19;2123;-47
2022/02/18 13:02:59;;;;;;;;;;;;;;;;;;7393814;19;2390;-47
2022/02/18 13:05:32;;;;;;;;;;;;;;;;;;7394419;19;2263;-56
2022/02/18 13:08:01;;;;;;;;;;;;;;;;;;7394448;19;2196;-46
2022/02/18 13:10:39;;;;;;;;;;;;;;;;;;7392178;19;2293;-51
2022/02/18 13:13:11;;;;;;;;;;;;;;;;;;7393297;19;2335;-46
2022/02/18 13:15:40;;;;;;;;;;;;;;;;;;7392076;19;2474;-49
2022/02/18 13:18:09;;;;;;;;;;;;;;;;;;7393768;19;2121;-46
2022/02/18 13:20:37;;;;;;;;;;;;;;;;;;7393029;19;2285;-48
2022/02/18 13:23:09;;;;;;;;;;;;;;;;;;7393014;19;1714;-49
2022/02/18 13:25:38;;;;;;;;;;;;;;;;;;7392144;19;2306;-49
2022/02/18 13:28:07;;;;;;;;;;;;;;;;;;7392901;19;1981;-46
2022/02/18 13:30:35;;;;;;;;;;;;;;;;;;7392733;19;2327;-47
2022/02/18 13:33:02;;;;;;;;;;;;;;;;;;7393188;19;2152;-46
2022/02/18 13:35:30;;;;;;;;;;;;;;;;;;7391338;19;2393;-45
2022/02/18 13:37:58;;;;;;;;;;;;;;;;;;7393361;19;2353;-46
2022/02/18 13:40:27;;;;;;;;;;;;;;;;;;7392015;19;1566;-51
2022/02/18 13:42:55;;;;;;;;;;;;;;;;;;7392491;19;1782;-48
2022/02/18 13:45:22;;;;;;;;;;;;;;;;;;7394799;19;1933;-51
2022/02/18 13:47:50;;;;;;;;;;;;;;;;;;7391994;19;1871;-47
2022/02/18 13:50:17;;;;;;;;;;;;;;;;;;7392507;19;1603;-48
2022/02/18 13:52:47;;;;;;;;;;;;;;;;;;7392496;19;2295;-50
2022/02/18 13:55:24;;;;;;;;;;;;;;;;;;7393571;19;2297;-52
2022/02/18 13:57:52;;;;;;;;;;;;;;;;;;7391642;19;2498;-49
2022/02/18 14:00:40;;;;;;;;;;;;;;;;;;7392380;19;2094;-53
2022/02/18 14:03:08;;;;;;;;;;;;;;;;;;7391993;19;2291;-49
2022/02/18 14:05:36;;;;;;;;;;;;;;;;;;7392201;19;2223;-51
2022/02/18 14:08:13;;;;;;;;;;;;;;;;;;7392004;19;2223;-66
2022/02/18 14:10:42;;;;;;;;;;;;;;;;;;7392323;19;2118;-50
2022/02/18 14:13:20;;;;;;;;;;;;;;;;;;7391853;19;2310;-46
2022/02/18 14:16:02;;;;;;;;;;;;;;;;;;7390439;19;2271;-51
2022/02/18 14:18:29;;;;;;;;;;;;;;;;;;7391535;19;2372;-46
2022/02/18 14:21:03;;;;;;;;;;;;;;;;;;7390732;19;2136;-51
2022/02/18 14:23:34;;;;;;;;;;;;;;;;;;7390789;19;2026;-49
2022/02/18 14:26:11;;;;;;;;;;;;;;;;;;7390449;19;2299;-49
2022/02/18 14:28:45;;;;;;;;;;;;;;;;;;7391075;19;2209;-47
2022/02/18 14:31:17;;;;;;;;;;;;;;;;;;7391347;19;2286;-52
2022/02/18 14:33:54;;;;;;;;;;;;;;;;;;7392002;19;2399;-47
2022/02/18 14:36:38;;;;;;;;;;;;;;;;;;7389459;19;2242;-51
2022/02/18 14:39:07;;;;;;;;;;;;;;;;;;7390295;19;1928;-52
2022/02/18 14:41:53;;;;;;;;;;;;;;;;;;7389805;19;2113;-49
2022/02/18 14:44:20;;;;;;;;;;;;;;;;;;7392148;19;2496;-48
2022/02/18 14:46:54;;;;;;;;;;;;;;;;;;7390863;19;2001;-47
2022/02/18 14:49:21;;;;;;;;;;;;;;;;;;7391855;19;2298;-55
2022/02/18 14:51:48;;;;;;;;;;;;;;;;;;7390871;19;1642;-48
2022/02/18 14:54:16;;;;;;;;;;;;;;;;;;7390229;19;2215;-45
2022/02/18 14:56:45;;;;;;;;;;;;;;;;;;7391148;19;2254;-47
2022/02/18 14:59:12;;;;;;;;;;;;;;;;;;7391223;19;2265;-47
2022/02/18 15:01:41;;;;;;;;;;;;;;;;;;7390894;19;1980;-50
2022/02/18 15:04:08;;;;;;;;;;;;;;;;;;7390521;19;2290;-51
2022/02/18 15:06:36;;;;;;;;;;;;;;;;;;7389533;19;2324;-65
2022/02/18 15:09:04;;;;;;;;;;;;;;;;;;7390231;19;1946;-49
2022/02/18 15:11:32;;;;;;;;;;;;;;;;;;7390245;19;2671;-52
2022/02/18 15:14:00;;;;;;;;;;;;;;;;;;7389917;19;2001;-46
2022/02/18 15:16:27;;;;;;;;;;;;;;;;;;7387610;19;1845;-47
2022/02/18 15:18:54;;;;;;;;;;;;;;;;;;7390062;19;2385;-45
2022/02/18 15:21:21;;;;;;;;;;;;;;;;;;7388364;19;2156;-51
2022/02/18 15:23:48;;;;;;;;;;;;;;;;;;7388746;19;2187;-47
2022/02/18 15:26:16;;;;;;;;;;;;;;;;;;7389955;19;2587;-46
2022/02/18 15:28:43;;;;;;;;;;;;;;;;;;7390047;19;2117;-46
2022/02/18 15:36:42;;;;;;;;;;;;;;;;;;7395327;19;2219;-50
2022/02/18 15:42:07;;;;;;;;;;;;;;;;;;7396376;19;2331;-45
2022/02/18 15:44:35;;;;;;;;;;;;;;;;;;7398796;19;2346;-48
2022/02/18 15:47:05;;;;;;;;;;;;;;;;;;7396014;19;1414;-66
2022/02/18 15:49:33;;;;;;;;;;;;;;;;;;7396401;19;2447;-48
2022/02/18 15:52:02;;;;;;;;;;;;;;;;;;7396525;19;2175;-49
2022/02/18 15:54:30;;;;;;;;;;;;;;;;;;7396107;19;2139;-66
2022/02/18 15:56:58;;;;;;;;;;;;;;;;;;7396307;19;2181;-49
2022/02/18 15:59:26;;;;;;;;;;;;;;;;;;7396888;19;2369;-47
2022/02/18 16:01:58;;;;;;;;;;;;;;;;;;7396362;19;2301;-54
2022/02/18 16:04:32;;;;;;;;;;;;;;;;;;7396343;19;2286;-48
2022/02/18 16:07:00;;;;;;;;;;;;;;;;;;7395385;19;2092;-53
2022/02/18 16:09:28;;;;;;;;;;;;;;;;;;7395451;19;2178;-48
2022/02/18 16:11:57;;;;;;;;;;;;;;;;;;7396208;19;2362;-52
2022/02/18 16:14:24;;;;;;;;;;;;;;;;;;7395471;19;2204;-53
2022/02/18 16:16:52;;;;;;;;;;;;;;;;;;7393902;19;2152;-50
2022/02/18 16:19:20;;;;;;;;;;;;;;;;;;7395283;19;2105;-66
2022/02/18 16:21:47;;;;;;;;;;;;;;;;;;7393019;19;2208;-51
2022/02/18 16:24:14;;;;;;;;;;;;;;;;;;7395876;19;2318;-51
2022/02/18 16:26:42;;;;;;;;;;;;;;;;;;7395464;19;2329;-49
2022/02/18 16:29:12;;;;;;;;;;;;;;;;;;7395416;19;2271;-49
2022/02/18 16:31:40;;;;;;;;;;;;;;;;;;7394727;19;2208;-49
2022/02/18 16:34:07;;;;;;;;;;;;;;;;;;7394347;19;2110;-48
2022/02/18 16:36:34;;;;;;;;;;;;;;;;;;7393176;19;1857;-52
2022/02/18 16:39:02;;;;;;;;;;;;;;;;;;7394453;19;2212;-48
2022/02/18 16:41:29;;;;;;;;;;;;;;;;;;7394464;19;2228;-46
2022/02/18 16:43:56;;;;;;;;;;;;;;;;;;7395163;19;2195;-51
2022/02/18 16:46:24;;;;;;;;;;;;;;;;;;7394578;19;1917;-49
2022/02/18 16:48:51;;;;;;;;;;;;;;;;;;7393250;19;2288;-54
2022/02/18 16:51:19;;;;;;;;;;;;;;;;;;7394441;19;2238;-51
2022/02/18 16:53:48;;;;;;;;;;;;;;;;;;7394554;19;2446;-45
2022/02/18 16:56:16;;;;;;;;;;;;;;;;;;7393368;19;2225;-49
2022/02/18 16:58:43;;;;;;;;;;;;;;;;;;7394930;19;2249;-52
2022/02/18 17:01:11;;;;;;;;;;;;;;;;;;7393992;19;1709;-66
2022/02/18 17:03:38;;;;;;;;;;;;;;;;;;7393623;19;2201;-53
2022/02/18 17:06:05;;;;;;;;;;;;;;;;;;7393883;19;2296;-47
2022/02/18 17:08:32;;;;;;;;;;;;;;;;;;7393856;19;2318;-49
2022/02/18 17:11:03;;;;;;;;;;;;;;;;;;7393670;19;2179;-51
2022/02/18 17:13:30;;;;;;;;;;;;;;;;;;7393369;19;2013;-50
2022/02/18 17:15:59;;;;;;;;;;;;;;;;;;7392723;19;2277;-74
2022/02/18 17:18:27;;;;;;;;;;;;;;;;;;7392458;19;2221;-51
2022/02/18 17:20:54;;;;;;;;;;;;;;;;;;7392270;19;2193;-48
2022/02/18 17:23:22;;;;;;;;;;;;;;;;;;7393116;19;2300;-66
2022/02/18 17:25:49;;;;;;;;;;;;;;;;;;7393157;19;2307;-47
2022/02/18 17:28:17;;;;;;;;;;;;;;;;;;7392681;19;2174;-46
2022/02/18 17:30:45;;;;;;;;;;;;;;;;;;7393515;19;1749;-47